Terminal Aerodrome Forecast
Issued by NWS

Home | Current Version | Previous Version | Text Only | Print | Product List | Glossary On
Versions: 1 2 3 4 5 6 7 8 9 10 11 12 13 14 15
000
FTUS41 KBGM 251731
TAFELM
TAF
KELM 251731Z 2518/2618 24010G18KT P6SM SCT100 SCT250
     FM252300 23005KT P6SM BKN100
     FM260700 VRB03KT P6SM BKN050 OVC100
     FM261100 23006KT P6SM BKN050 PROB30 2611/2617 -SHRA=

USA.gov is the U.S. government's official web portal to all federal, state and local government web resources and services.